Time;durP1;ratioP1;P1;durP2;ratioP2;P2;SDS_P1;SDS_P2;PMS_P1;PMS_P2;Temp;Humidity;BMP_temperature;BMP_pressure;BME280_temperature;BME280_humidity;BME280_pressure;Samples;Min_cycle;Max_cycle;Signal;HPM_P1;HPM_P2
2023/03/31 08:02:30;;;;;;;;;2.33;2.33;;;;;13.33;60.74;99634.34;6276087;22;73012;-72
2023/03/31 08:04:56;;;;;;;;;8.67;4.33;;;;;13.39;60.58;99639.63;6274826;22;46701;-72
2023/03/31 08:07:21;;;;;;;;;5.00;3.00;;;;;13.43;60.65;99629.88;6277649;22;45263;-72
2023/03/31 08:09:46;;;;;;;;;1.67;1.00;;;;;13.35;60.55;99611.31;6277063;22;45183;-73
2023/03/31 08:12:13;;;;;;;;;7.00;3.00;;;;;13.39;60.14;99618.38;6277613;22;45238;-72
2023/03/31 08:14:38;;;;;;;;;3.33;1.00;;;;;13.61;60.30;99626.19;6276227;22;45533;-73
2023/03/31 08:17:04;;;;;;;;;3.00;3.00;;;;;13.66;60.08;99633.22;6277054;22;45261;-73
2023/03/31 08:19:29;;;;;;;;;8.33;3.00;;;;;13.72;60.61;99631.44;6276747;22;45348;-73
2023/03/31 08:21:55;;;;;;;;;4.67;3.00;;;;;13.76;60.28;99634.06;6276641;22;45281;-73
2023/03/31 08:24:20;;;;;;;;;8.33;2.00;;;;;13.79;60.39;99620.75;6277660;22;46213;-72
2023/03/31 08:26:46;;;;;;;;;2.33;1.00;;;;;13.92;60.04;99632.19;6301251;22;45276;-73
2023/03/31 08:29:11;;;;;;;;;2.00;1.33;;;;;13.87;59.89;99618.06;6277429;22;45243;-72
2023/03/31 08:31:37;;;;;;;;;6.00;3.67;;;;;14.00;59.57;99630.34;6276602;22;45245;-72
2023/03/31 08:34:04;;;;;;;;;4.33;1.67;;;;;14.06;59.47;99634.72;6300803;22;46718;-72
2023/03/31 08:36:29;;;;;;;;;6.67;3.00;;;;;14.08;59.71;99628.47;6276857;22;45287;-72
2023/03/31 08:38:55;;;;;;;;;1.67;1.67;;;;;14.06;59.28;99597.53;6277604;22;45190;-72
2023/03/31 08:41:27;;;;;;;;;6.33;4.00;;;;;14.32;59.22;99635.34;6275320;22;45204;-72
2023/03/31 08:43:57;;;;;;;;;6.00;3.67;;;;;14.39;58.53;99614.03;6276820;22;46844;-73
2023/03/31 08:46:26;;;;;;;;;7.33;3.33;;;;;14.42;58.56;99600.69;6276347;22;45326;-73
2023/03/31 08:48:56;;;;;;;;;5.00;3.33;;;;;14.52;58.43;99618.34;6277511;22;45117;-72
2023/03/31 08:51:21;;;;;;;;;8.00;3.33;;;;;14.62;57.96;99629.75;6276875;22;45240;-72
2023/03/31 08:53:54;;;;;;;;;7.00;2.67;;;;;14.66;57.44;99635.03;6275119;22;46958;-73
2023/03/31 08:56:21;;;;;;;;;3.67;3.00;;;;;14.62;57.32;99625.34;6277714;22;45214;-73
2023/03/31 08:58:51;;;;;;;;;4.33;3.00;;;;;14.69;57.13;99624.34;6277433;22;45325;-73
2023/03/31 09:01:43;;;;;;;;;5.00;3.33;;;;;14.75;56.93;99620.75;6275934;22;45168;-73
2023/03/31 09:04:39;;;;;;;;;6.67;2.67;;;;;14.88;56.53;99621.50;6301019;22;46917;-73
2023/03/31 09:07:10;;;;;;;;;3.50;2.00;;;;;14.87;55.78;99631.25;6274985;22;45681;-73
2023/03/31 09:09:48;;;;;;;;;7.00;4.00;;;;;14.84;55.33;99607.31;6274999;22;45356;-73
2023/03/31 09:12:24;;;;;;;;;4.33;2.00;;;;;14.81;55.74;99622.47;6277241;22;45367;-72
2023/03/31 09:15:28;;;;;;;;;5.33;2.00;;;;;14.83;55.73;99618.00;6276694;22;45370;-72
2023/03/31 09:18:01;;;;;;;;;6.00;3.00;;;;;14.83;54.74;99621.53;6270390;22;45321;-72
2023/03/31 09:20:32;;;;;;;;;1.00;1.00;;;;;14.87;55.76;99622.38;6273861;22;45437;-73
2023/03/31 09:23:10;;;;;;;;;7.00;2.67;;;;;14.86;55.42;99628.59;6274546;22;45761;-72
2023/03/31 09:25:40;;;;;;;;;6.67;3.00;;;;;14.76;55.10;99623.41;6274280;22;45682;-73
2023/03/31 09:28:17;;;;;;;;;5.33;2.33;;;;;14.71;55.72;99650.97;6273883;22;45406;-72
2023/03/31 09:30:43;;;;;;;;;6.00;1.33;;;;;14.55;56.40;99632.50;6273428;22;45291;-73
2023/03/31 09:33:17;;;;;;;;;3.67;1.33;;;;;14.35;58.51;99649.53;6276644;22;45857;-73
2023/03/31 09:35:43;;;;;;;;;11.00;5.67;;;;;14.21;59.05;99654.97;6277684;22;46370;-74
2023/03/31 09:38:13;;;;;;;;;3.00;3.00;;;;;14.02;60.37;99646.25;6278935;22;45185;-73
2023/03/31 09:40:39;;;;;;;;;3.00;3.00;;;;;13.92;60.61;99645.47;6278649;22;45307;-73
2023/03/31 09:43:17;;;;;;;;;10.67;8.67;;;;;13.86;61.31;99632.22;6278380;22;45188;-73
2023/03/31 09:45:44;;;;;;;;;5.33;3.00;;;;;13.78;62.68;99616.34;6277469;22;45149;-73
2023/03/31 09:48:15;;;;;;;;;4.67;2.33;;;;;13.79;61.55;99618.09;6278209;22;45184;-73
2023/03/31 09:50:49;;;;;;;;;8.00;2.33;;;;;13.88;61.06;99631.31;6275678;22;45272;-73
2023/03/31 09:53:39;;;;;;;;;3.00;3.00;;;;;13.87;61.17;99607.44;6276403;22;45788;-74
2023/03/31 09:56:07;;;;;;;;;2.33;1.00;;;;;13.95;61.13;99621.53;6278093;22;45196;-74
2023/03/31 09:58:41;;;;;;;;;5.00;2.00;;;;;13.94;60.52;99609.13;6278011;22;45299;-74
2023/03/31 10:01:08;;;;;;;;;2.33;1.67;;;;;14.05;60.07;99614.34;6277025;22;45258;-74
2023/03/31 10:03:46;;;;;;;;;4.00;3.00;;;;;14.06;58.87;99609.03;6277450;22;45660;-73
2023/03/31 10:06:15;;;;;;;;;5.67;3.67;;;;;14.20;58.90;99608.00;6275808;22;46660;-73
2023/03/31 10:08:55;;;;;;;;;1.00;1.00;;;;;14.34;58.90;99619.41;6277839;22;45180;-73
2023/03/31 10:11:21;;;;;;;;;3.33;3.33;;;;;14.41;58.32;99606.91;6277821;22;45303;-73
2023/03/31 10:14:07;;;;;;;;;4.00;1.00;;;;;14.34;57.31;99611.44;6275383;22;45205;-74
2023/03/31 10:16:42;;;;;;;;;2.67;2.67;;;;;14.44;57.32;99622.84;6277591;22;46624;-73
2023/03/31 10:19:17;;;;;;;;;2.00;1.00;;;;;14.43;57.48;99619.31;6278099;22;45179;-74
2023/03/31 10:21:45;;;;;;;;;2.00;1.00;;;;;14.48;56.69;99624.53;6278477;22;45208;-73
2023/03/31 10:24:10;;;;;;;;;2.67;2.00;;;;;14.54;57.03;99604.16;6277885;22;45269;-73
2023/03/31 10:26:37;;;;;;;;;4.33;2.00;;;;;14.55;56.91;99613.00;6277370;22;45400;-74
2023/03/31 10:29:11;;;;;;;;;3.00;2.00;;;;;14.63;56.44;99604.94;6278253;22;45274;-73
2023/03/31 10:31:37;;;;;;;;;4.67;1.00;;;;;14.73;56.20;99606.56;6277327;22;45275;-73
2023/03/31 10:34:11;;;;;;;;;5.00;2.00;;;;;14.80;56.00;99604.75;6277704;22;45368;-73
2023/03/31 10:36:37;;;;;;;;;1.00;1.00;;;;;14.88;54.29;99609.06;6277324;22;45321;-74
2023/03/31 10:39:06;;;;;;;;;1.67;1.33;;;;;14.91;54.14;99582.41;6277205;22;45278;-73
2023/03/31 10:41:32;;;;;;;;;2.00;1.00;;;;;15.11;54.83;99595.47;6277896;22;45219;-73
2023/03/31 10:44:01;;;;;;;;;3.00;2.00;;;;;15.19;54.60;99598.91;6277515;22;45240;-72
2023/03/31 10:46:51;;;;;;;;;3.00;2.00;;;;;15.25;53.93;99594.41;6276456;22;46226;-72
2023/03/31 10:49:19;;;;;;;;;3.00;2.00;;;;;15.29;53.53;99597.00;6275638;22;45126;-73
2023/03/31 10:52:00;;;;;;;;;6.33;2.67;;;;;15.37;54.03;99619.03;6278041;22;45206;-72
2023/03/31 10:54:26;;;;;;;;;1.33;1.33;;;;;15.41;53.33;99588.81;6277596;22;45358;-72
2023/03/31 10:56:55;;;;;;;;;5.00;1.33;;;;;15.40;52.98;99581.75;6277335;22;45201;-73
2023/03/31 10:59:32;;;;;;;;;2.00;1.00;;;;;15.54;52.27;99610.81;6277646;22;45156;-72
2023/03/31 11:02:35;;;;;;;;;3.00;1.00;;;;;15.72;52.69;99579.53;6277054;22;45326;-73
2023/03/31 11:05:14;;;;;;;;;1.33;1.00;;;;;15.81;52.00;99614.00;6275254;22;45763;-73
2023/03/31 11:07:43;;;;;;;;;2.67;1.00;;;;;15.84;51.34;99604.16;6278068;22;45743;-73
2023/03/31 11:10:21;;;;;;;;;5.00;2.50;;;;;15.84;52.41;99606.81;6275303;22;45264;-73
2023/03/31 11:12:48;;;;;;;;;2.67;1.00;;;;;15.84;51.68;99598.84;6277367;22;45293;-72
2023/03/31 11:15:27;;;;;;;;;3.33;2.33;;;;;15.83;51.93;99601.53;6274291;22;45496;-72
2023/03/31 11:18:14;;;;;;;;;0.00;0.00;;;;;15.93;51.53;99595.13;6277771;22;45351;-72
2023/03/31 11:20:54;;;;;;;;;1.00;0.33;;;;;15.97;51.62;99601.31;6277437;22;45073;-72
2023/03/31 11:23:38;;;;;;;;;3.00;1.00;;;;;15.85;52.17;99613.03;6278196;22;45271;-73
2023/03/31 11:26:18;;;;;;;;;1.00;1.00;;;;;15.78;53.39;99620.25;6277571;22;45243;-72
2023/03/31 11:28:57;;;;;;;;;4.00;2.00;;;;;15.76;52.93;99624.72;6277930;22;45442;-72
2023/03/31 11:31:37;;;;;;;;;2.67;2.67;;;;;15.77;52.46;99602.53;6274846;22;45197;-72
2023/03/31 11:34:29;;;;;;;;;2.67;0.33;;;;;15.88;52.38;99615.66;6277536;22;45201;-72
2023/03/31 11:37:16;;;;;;;;;2.00;2.00;;;;;16.01;52.45;99603.00;6277579;22;45275;-72
2023/03/31 11:40:06;;;;;;;;;4.00;1.00;;;;;16.18;51.80;99592.03;6278115;22;45113;-73
2023/03/31 11:42:44;;;;;;;;;1.00;1.00;;;;;16.15;51.51;99587.66;6278016;22;45349;-73
2023/03/31 11:45:20;;;;;;;;;3.00;1.33;;;;;16.16;51.02;99576.09;6276799;22;45373;-72
2023/03/31 11:47:51;;;;;;;;;4.00;2.00;;;;;16.27;51.15;99587.44;6277187;22;45262;-73
2023/03/31 11:50:24;;;;;;;;;1.33;1.00;;;;;16.37;51.05;99587.25;6278084;22;46125;-73
2023/03/31 11:52:57;;;;;;;;;3.67;1.00;;;;;16.40;50.78;99573.88;6277963;22;45199;-73
2023/03/31 11:55:26;;;;;;;;;2.33;1.00;;;;;16.51;50.41;99590.53;6276767;22;45255;-74
2023/03/31 11:58:07;;;;;;;;;1.00;1.00;;;;;16.66;49.70;99610.69;6278302;22;45350;-72
2023/03/31 12:00:42;;;;;;;;;2.33;1.33;;;;;16.72;48.36;99587.47;6277793;22;45243;-73
2023/03/31 12:03:16;;;;;;;;;1.00;1.00;;;;;16.72;47.81;99594.56;6278008;22;45179;-73
2023/03/31 12:05:47;;;;;;;;;7.67;3.33;;;;;16.77;46.64;99568.69;6278218;22;45248;-74
2023/03/31 12:08:21;;;;;;;;;2.00;2.00;;;;;16.82;46.19;99565.94;6277747;22;45239;-73
2023/03/31 12:10:54;;;;;;;;;2.00;2.00;;;;;16.93;46.56;99556.78;6277386;22;45717;-73
2023/03/31 12:13:39;;;;;;;;;4.67;3.00;;;;;17.15;46.29;99567.00;6277258;22;45094;-72
2023/03/31 12:16:17;;;;;;;;;4.00;2.33;;;;;16.94;44.62;99552.31;6277385;22;45319;-73
2023/03/31 12:18:56;;;;;;;;;1.00;1.00;;;;;17.13;45.67;99576.84;6277766;22;45389;-72
2023/03/31 12:21:25;;;;;;;;;3.33;1.00;;;;;17.11;46.58;99586.66;6277777;22;45377;-73
2023/03/31 12:23:50;;;;;;;;;1.00;1.00;;;;;16.91;48.55;99587.97;6301653;22;45157;-74
2023/03/31 12:27:02;;;;;;;;;3.33;1.00;;;;;16.58;50.19;99589.53;6277668;22;45412;-73
2023/03/31 12:29:42;;;;;;;;;1.00;1.00;;;;;16.28;51.01;99569.66;6277710;22;45524;-73
2023/03/31 12:32:23;;;;;;;;;2.33;1.00;;;;;16.26;52.03;99592.78;6276752;22;45246;-74
2023/03/31 12:35:03;;;;;;;;;1.33;0.00;;;;;16.19;52.05;99605.38;6274990;22;45173;-73
2023/03/31 12:37:51;;;;;;;;;1.00;0.00;;;;;16.19;51.52;99583.13;6278178;22;45379;-73
2023/03/31 12:40:45;;;;;;;;;2.00;0.67;;;;;16.00;50.74;99567.47;6277505;22;45331;-73
2023/03/31 12:43:41;;;;;;;;;1.00;1.00;;;;;16.15;50.86;99587.66;6277719;22;46034;-74
2023/03/31 12:46:18;;;;;;;;;1.67;0.33;;;;;16.21;49.90;99581.31;6277102;22;45183;-73
2023/03/31 12:48:50;;;;;;;;;2.00;1.00;;;;;16.22;48.38;99591.97;6277918;22;45179;-73
2023/03/31 12:51:44;;;;;;;;;1.33;0.00;;;;;16.14;47.71;99588.56;6277440;22;45188;-73
2023/03/31 12:54:25;;;;;;;;;2.33;1.00;;;;;16.12;48.00;99577.03;6277112;22;46102;-73
2023/03/31 12:56:59;;;;;;;;;2.00;1.00;;;;;16.09;48.12;99575.31;6276937;22;45274;-72
2023/03/31 12:59:32;;;;;;;;;3.00;1.00;;;;;16.13;48.87;99562.78;6277883;22;45172;-73
2023/03/31 13:02:13;;;;;;;;;2.33;0.00;;;;;16.16;48.65;99593.84;6276506;22;45359;-73
2023/03/31 13:04:39;;;;;;;;;1.00;1.00;;;;;16.08;48.05;99562.03;6277621;22;45299;-72
2023/03/31 13:07:26;;;;;;;;;1.00;0.00;;;;;15.98;47.98;99547.09;6278094;22;45267;-72
2023/03/31 13:09:56;;;;;;;;;2.00;0.67;;;;;16.13;48.17;99589.44;6278910;22;45260;-71
2023/03/31 13:12:26;;;;;;;;;2.33;0.00;;;;;16.17;48.11;99577.84;6278628;22;45457;-72
2023/03/31 13:14:57;;;;;;;;;2.67;0.00;;;;;16.14;47.57;99561.03;6278756;22;45431;-71
2023/03/31 13:17:23;;;;;;;;;0.00;0.00;;;;;16.33;47.36;99581.13;6277991;22;45226;-71
2023/03/31 13:19:50;;;;;;;;;1.33;1.00;;;;;16.45;46.85;99572.88;6278506;22;45232;-71
2023/03/31 13:22:39;;;;;;;;;4.00;1.67;;;;;16.70;47.46;99581.25;6275910;22;45728;-70
2023/03/31 13:25:29;;;;;;;;;0.00;0.00;;;;;16.84;46.06;99569.47;6278175;22;45250;-71
2023/03/31 13:27:57;;;;;;;;;0.00;0.00;;;;;16.88;46.27;99548.00;6278573;22;45281;-72
2023/03/31 13:30:35;;;;;;;;;1.00;1.00;;;;;16.93;46.28;99564.78;6278049;22;45227;-71
2023/03/31 13:33:10;;;;;;;;;0.33;0.33;;;;;16.78;46.51;99560.66;6278616;22;45172;-71
2023/03/31 13:35:38;;;;;;;;;0.33;0.33;;;;;16.74;47.52;99561.59;6277760;22;45216;-72
2023/03/31 13:38:22;;;;;;;;;1.00;0.00;;;;;16.54;49.56;99593.16;6278406;22;45314;-72
2023/03/31 13:40:54;;;;;;;;;0.67;0.00;;;;;16.20;50.89;99595.56;6278432;22;45359;-71
2023/03/31 13:43:32;;;;;;;;;0.67;0.67;;;;;15.75;52.00;99614.97;6276396;22;45576;-71
2023/03/31 13:46:13;;;;;;;;;3.00;1.00;;;;;15.46;53.01;99634.03;6277584;22;45322;-72
2023/03/31 13:48:56;;;;;;;;;3.00;1.00;;;;;15.21;54.58;99634.38;6276124;22;45249;-72
2023/03/31 13:51:33;;;;;;;;;2.67;1.67;;;;;14.94;57.67;99654.22;6276422;22;45232;-72
2023/03/31 13:54:11;;;;;;;;;6.67;5.00;;;;;14.72;57.38;99671.31;6276432;22;45412;-73
2023/03/31 13:57:10;;;;;;;;;11.33;7.33;;;;;14.46;58.18;99663.59;6275934;22;45541;-74
2023/03/31 14:00:24;;;;;;;;;11.33;5.67;;;;;14.13;59.50;99660.34;6278507;22;45302;-74
2023/03/31 14:03:00;;;;;;;;;6.33;3.67;;;;;13.88;59.59;99646.38;6184119;22;45255;-74
2023/03/31 14:06:03;;;;;;;;;3.67;1.67;;;;;13.69;61.54;99642.09;6278282;22;45311;-74
2023/03/31 14:08:37;;;;;;;;;7.00;7.00;;;;;13.70;61.32;99631.47;6277973;22;46140;-74
2023/03/31 14:11:24;;;;;;;;;6.00;3.67;;;;;13.83;60.62;99624.25;6277558;22;45484;-73
2023/03/31 14:14:10;;;;;;;;;5.00;3.33;;;;;14.07;61.91;99623.19;6277655;22;45233;-74
2023/03/31 14:16:56;;;;;;;;;3.67;2.33;;;;;14.23;60.60;99611.53;6275574;22;45877;-75
2023/03/31 14:19:31;;;;;;;;;4.33;3.00;;;;;14.50;62.66;99622.75;6274999;22;47656;-74
2023/03/31 14:22:07;;;;;;;;;2.67;1.00;;;;;14.67;59.78;99610.19;6277948;22;45335;-75
2023/03/31 14:24:36;;;;;;;;;1.00;0.00;;;;;14.78;59.50;99599.44;6278596;22;45149;-74
2023/03/31 14:27:10;;;;;;;;;0.00;0.00;;;;;14.92;58.84;99607.25;6277888;22;45335;-73
2023/03/31 14:29:42;;;;;;;;;2.00;2.00;;;;;15.02;58.46;99606.25;6278369;22;45301;-75
2023/03/31 14:32:42;;;;;;;;;2.33;2.33;;;;;15.07;57.91;99606.16;6277569;22;45226;-73
2023/03/31 14:35:27;;;;;;;;;5.33;5.33;;;;;15.05;58.20;99613.31;6278381;22;45258;-76
2023/03/31 14:37:55;;;;;;;;;8.00;5.00;;;;;14.91;57.88;99610.81;6278616;22;45278;-76
2023/03/31 14:40:21;;;;;;;;;7.33;5.00;;;;;14.92;57.91;99618.75;6279106;22;46052;-73
2023/03/31 14:42:49;;;;;;;;;6.67;4.33;;;;;14.85;58.63;99617.09;6278689;22;45169;-73
2023/03/31 14:45:17;;;;;;;;;0.67;0.67;;;;;14.88;58.33;99648.97;6277825;22;45125;-73
2023/03/31 14:47:53;;;;;;;;;7.67;4.00;;;;;14.84;58.23;99617.09;6278550;22;45343;-76
2023/03/31 14:50:18;;;;;;;;;7.33;6.67;;;;;14.82;57.83;99624.25;6276258;22;45421;-75
2023/03/31 14:52:51;;;;;;;;;10.00;7.33;;;;;14.76;57.62;99604.78;6275905;22;44881;-76
2023/03/31 14:55:21;;;;;;;;;3.00;1.00;;;;;14.70;58.96;99606.63;6278500;22;45183;-75
2023/03/31 14:57:50;;;;;;;;;1.00;0.00;;;;;14.52;57.86;99575.81;6278545;22;45238;-75
2023/03/31 15:00:23;;;;;;;;;5.33;5.33;;;;;14.86;58.09;99621.50;6277677;22;46209;-76
2023/03/31 15:02:48;;;;;;;;;7.67;5.00;;;;;14.83;58.30;99600.25;6277713;22;45113;-75
2023/03/31 15:05:20;;;;;;;;;2.00;2.00;;;;;14.99;57.44;99620.47;6278449;22;45280;-76
2023/03/31 15:07:46;;;;;;;;;3.67;3.67;;;;;15.12;57.41;99612.31;6276564;22;46045;-75
2023/03/31 15:10:18;;;;;;;;;5.67;3.33;;;;;15.24;57.31;99625.47;6278298;22;46307;-75
2023/03/31 15:12:43;;;;;;;;;5.00;5.00;;;;;15.41;56.33;99619.91;6278424;22;45370;-76
2023/03/31 15:15:12;;;;;;;;;2.00;1.00;;;;;15.50;56.02;99635.75;6278049;22;45508;-75
2023/03/31 15:17:40;;;;;;;;;3.00;1.67;;;;;15.48;55.73;99600.25;6278315;22;45339;-76
2023/03/31 15:20:29;;;;;;;;;4.67;4.00;;;;;15.64;55.04;99615.09;6278869;22;45262;-75
2023/03/31 15:22:56;;;;;;;;;2.33;1.33;;;;;15.62;54.98;99619.56;6279025;22;45318;-74
2023/03/31 15:25:28;;;;;;;;;4.67;2.00;;;;;15.66;54.99;99620.44;6278363;22;45278;-75
2023/03/31 15:28:03;;;;;;;;;6.00;5.00;;;;;15.67;55.48;99609.72;6278264;22;45251;-74
2023/03/31 15:30:29;;;;;;;;;1.00;1.00;;;;;15.62;55.02;99614.25;6277511;22;45219;-75
2023/03/31 15:32:55;;;;;;;;;1.33;1.33;;;;;15.67;55.16;99632.81;6278166;22;45263;-74
2023/03/31 15:35:31;;;;;;;;;3.00;2.00;;;;;15.56;54.69;99635.66;6276147;22;45268;-72
2023/03/31 15:37:59;;;;;;;;;5.00;5.00;;;;;15.48;54.49;99637.53;6278227;22;45247;-73
2023/03/31 15:40:41;;;;;;;;;4.33;1.00;;;;;15.47;54.95;99641.13;6277844;22;45203;-72
2023/03/31 15:43:15;;;;;;;;;6.00;2.00;;;;;15.28;54.23;99623.63;6275972;22;45403;-72
2023/03/31 15:45:50;;;;;;;;;7.67;5.67;;;;;15.26;54.13;99644.94;6275598;22;45647;-72
2023/03/31 15:48:28;;;;;;;;;0.00;0.00;;;;;15.15;54.01;99646.88;6278169;22;45251;-72
2023/03/31 15:51:01;;;;;;;;;1.00;1.00;;;;;15.14;53.79;99659.28;6275300;22;46920;-72
2023/03/31 15:53:49;;;;;;;;;2.00;2.00;;;;;15.19;54.02;99672.56;6277190;22;45109;-71
2023/03/31 15:56:37;;;;;;;;;2.33;1.00;;;;;15.25;53.52;99667.16;6277886;22;45200;-72
2023/03/31 15:59:20;;;;;;;;;4.67;3.00;;;;;15.28;54.01;99660.91;6277542;22;46010;-74
2023/03/31 16:01:47;;;;;;;;;1.00;1.00;;;;;15.40;53.70;99671.38;6275711;22;46634;-72
2023/03/31 16:04:14;;;;;;;;;1.00;1.00;;;;;15.32;53.96;99678.59;6278142;22;45275;-72
2023/03/31 16:07:01;;;;;;;;;0.00;0.00;;;;;15.24;53.71;99676.06;6277627;22;45306;-72
2023/03/31 16:09:39;;;;;;;;;0.00;0.00;;;;;15.15;53.25;99666.41;6278113;22;45355;-72
2023/03/31 16:12:14;;;;;;;;;0.33;0.33;;;;;15.05;53.77;99672.72;6277467;22;46066;-71
2023/03/31 16:14:53;;;;;;;;;3.00;0.00;;;;;14.99;53.48;99670.16;6277736;22;45303;-71
2023/03/31 16:17:33;;;;;;;;;0.00;0.00;;;;;14.99;53.90;99659.50;6277809;22;45281;-72
2023/03/31 16:20:17;;;;;;;;;0.33;0.33;;;;;15.07;53.92;99667.38;6277442;22;45425;-71
2023/03/31 16:22:46;;;;;;;;;0.00;0.00;;;;;15.09;53.94;99684.22;6277928;22;46037;-72
2023/03/31 16:25:16;;;;;;;;;1.00;0.00;;;;;15.02;53.48;99678.09;6277648;22;45227;-71
2023/03/31 16:27:49;;;;;;;;;2.00;0.00;;;;;14.99;53.80;99667.47;6274817;22;45394;-70
2023/03/31 16:30:19;;;;;;;;;1.00;0.00;;;;;14.85;54.11;99664.09;6276880;22;45433;-71
2023/03/31 16:33:13;;;;;;;;;0.00;0.00;;;;;14.86;53.67;99685.34;6276195;22;45328;-71
2023/03/31 16:35:41;;;;;;;;;1.00;0.00;;;;;14.80;53.79;99668.59;6277237;22;45278;-71
2023/03/31 16:38:08;;;;;;;;;0.00;0.00;;;;;14.75;54.33;99676.63;6277680;22;45113;-70
2023/03/31 16:40:39;;;;;;;;;1.00;0.00;;;;;14.64;54.06;99683.81;6276974;22;45368;-73
2023/03/31 16:43:09;;;;;;;;;0.00;0.00;;;;;14.63;54.69;99679.41;6277473;22;46128;-73
2023/03/31 16:45:35;;;;;;;;;1.00;1.00;;;;;14.53;56.36;99681.25;6277211;22;45259;-73
2023/03/31 16:48:00;;;;;;;;;0.00;0.00;;;;;14.41;55.64;99676.91;6302353;22;45267;-73
2023/03/31 16:50:25;;;;;;;;;0.00;0.00;;;;;14.37;55.82;99680.50;6277519;22;45259;-73
2023/03/31 16:52:51;;;;;;;;;1.00;0.00;;;;;14.32;56.18;99682.31;6277393;22;46091;-73
2023/03/31 16:55:16;;;;;;;;;2.00;1.00;;;;;14.20;56.15;99683.31;6277028;22;47865;-73
2023/03/31 16:57:41;;;;;;;;;0.67;0.67;;;;;14.14;56.11;99679.81;6277802;22;45262;-73
2023/03/31 17:00:07;;;;;;;;;2.00;0.00;;;;;14.01;56.46;99681.72;6275261;22;44883;-70
2023/03/31 17:02:33;;;;;;;;;1.00;0.00;;;;;13.94;56.11;99670.22;6276771;22;45218;-70
2023/03/31 17:04:58;;;;;;;;;1.00;1.00;;;;;14.00;56.47;99683.47;6277181;22;45188;-73
2023/03/31 17:07:23;;;;;;;;;0.00;0.00;;;;;14.00;56.43;99695.88;6277641;22;45190;-71
2023/03/31 17:09:49;;;;;;;;;1.00;1.00;;;;;13.87;56.12;99677.38;6277458;22;46321;-73
2023/03/31 17:12:14;;;;;;;;;0.33;0.00;;;;;13.86;56.08;99677.38;6276697;22;47122;-72
2023/03/31 17:14:40;;;;;;;;;1.00;1.00;;;;;13.94;56.47;99703.88;6277403;22;45175;-73
2023/03/31 17:17:05;;;;;;;;;3.33;1.00;;;;;13.84;56.13;99692.47;6276801;22;45045;-73
2023/03/31 17:19:31;;;;;;;;;0.00;0.00;;;;;13.88;56.42;99702.16;6274499;22;45485;-73
2023/03/31 17:22:00;;;;;;;;;2.33;2.33;;;;;13.76;56.99;99700.47;6277122;22;45194;-72
2023/03/31 17:24:26;;;;;;;;;2.67;1.00;;;;;13.73;56.99;99689.88;6277630;22;45274;-72
2023/03/31 17:26:51;;;;;;;;;5.67;1.33;;;;;13.79;57.30;99716.38;6277374;22;45276;-72
2023/03/31 17:29:17;;;;;;;;;0.00;0.00;;;;;13.74;56.62;99715.53;6302055;22;45281;-73
2023/03/31 17:31:42;;;;;;;;;2.00;0.00;;;;;13.62;57.08;99694.34;6277484;22;45842;-73
2023/03/31 17:34:08;;;;;;;;;2.00;1.00;;;;;13.69;57.58;99724.41;6277373;22;45239;-72
2023/03/31 17:36:33;;;;;;;;;0.00;0.00;;;;;13.68;57.68;99725.31;6277310;22;45550;-72
2023/03/31 17:38:59;;;;;;;;;1.00;1.00;;;;;13.68;57.90;99735.94;6277400;22;45160;-72
2023/03/31 17:41:26;;;;;;;;;2.00;0.33;;;;;13.59;57.48;99708.53;6276864;22;46401;-72
2023/03/31 17:43:51;;;;;;;;;2.67;1.00;;;;;13.63;57.41;99717.34;6276928;22;45168;-72
2023/03/31 17:46:17;;;;;;;;;6.00;0.33;;;;;13.61;57.47;99711.16;6276046;22;45219;-72
2023/03/31 17:48:43;;;;;;;;;2.00;0.33;;;;;13.65;58.00;99735.03;6276350;22;45331;-72
2023/03/31 17:51:14;;;;;;;;;3.33;1.00;;;;;13.65;57.31;99727.06;6276534;22;45270;-72
2023/03/31 17:53:43;;;;;;;;;4.33;1.00;;;;;13.71;57.25;99742.09;6278340;22;45097;-72
2023/03/31 17:56:09;;;;;;;;;1.33;0.33;;;;;13.73;56.97;99739.44;6278260;22;45428;-72
2023/03/31 17:58:34;;;;;;;;;0.00;0.00;;;;;13.74;56.75;99736.75;6278654;22;45434;-72
2023/03/31 18:01:03;;;;;;;;;2.00;1.00;;;;;13.73;56.66;99747.41;6277111;22;45523;-72
2023/03/31 18:03:29;;;;;;;;;4.00;1.00;;;;;13.74;56.04;99752.69;6276158;22;45207;-73
2023/03/31 18:05:54;;;;;;;;;0.00;0.00;;;;;13.75;55.80;99749.19;6278648;22;45149;-72
2023/03/31 18:08:20;;;;;;;;;1.00;0.00;;;;;13.74;55.25;99758.00;6279133;22;45141;-71
2023/03/31 18:10:46;;;;;;;;;2.00;2.00;;;;;13.61;55.05;99741.28;6276745;22;45210;-72
2023/03/31 18:13:11;;;;;;;;;5.33;1.00;;;;;13.72;54.09;99761.56;6279307;22;45252;-74
2023/03/31 18:15:37;;;;;;;;;4.00;1.67;;;;;13.69;53.45;99769.56;6275466;22;45413;-72
2023/03/31 18:18:03;;;;;;;;;4.67;2.67;;;;;13.65;53.46;99758.94;6278415;22;45433;-73
2023/03/31 18:20:29;;;;;;;;;5.00;1.67;;;;;13.66;52.73;99781.94;6278100;22;46214;-73
2023/03/31 18:22:54;;;;;;;;;2.00;1.00;;;;;13.65;52.62;99772.22;6278611;22;45359;-72
2023/03/31 18:25:20;;;;;;;;;1.00;1.00;;;;;13.58;53.31;99761.63;6278759;22;45264;-72
2023/03/31 18:27:47;;;;;;;;;1.00;1.00;;;;;13.60;52.28;99771.34;6277854;22;45504;-72
2023/03/31 18:30:13;;;;;;;;;1.00;1.00;;;;;13.63;53.16;99775.78;6277326;22;45984;-73
2023/03/31 18:32:38;;;;;;;;;5.33;1.00;;;;;13.65;53.07;99784.63;6278524;22;45253;-72
2023/03/31 18:35:05;;;;;;;;;1.67;1.33;;;;;13.62;53.26;99784.63;6278524;22;45195;-72
2023/03/31 18:37:30;;;;;;;;;3.67;1.00;;;;;13.54;53.83;99773.16;6276144;22;45185;-72
2023/03/31 18:39:56;;;;;;;;;3.33;2.00;;;;;13.54;53.78;99778.47;6277899;22;45198;-72
2023/03/31 18:42:24;;;;;;;;;1.00;1.00;;;;;13.47;53.82;99776.72;6278092;22;45204;-72
2023/03/31 18:44:53;;;;;;;;;3.00;1.00;;;;;13.58;53.84;99809.41;6276221;22;45474;-72
2023/03/31 18:47:19;;;;;;;;;3.33;2.67;;;;;13.53;53.48;99795.31;6278035;22;45243;-72
2023/03/31 18:49:46;;;;;;;;;2.00;1.00;;;;;13.55;53.61;99810.31;6278539;22;45950;-72
2023/03/31 18:52:11;;;;;;;;;1.00;1.00;;;;;13.41;53.43;99796.22;6278580;22;45177;-72
2023/03/31 18:54:37;;;;;;;;;2.00;0.33;;;;;13.39;52.98;99788.28;6279633;22;45204;-72
2023/03/31 18:57:02;;;;;;;;;3.67;1.00;;;;;13.30;53.10;99782.09;6278852;22;45429;-72
2023/03/31 18:59:28;;;;;;;;;1.00;1.00;;;;;13.37;53.29;99795.34;6276315;22;48452;-73
2023/03/31 19:01:53;;;;;;;;;0.33;0.33;;;;;13.33;52.89;99788.28;6276815;22;45322;-72
2023/03/31 19:04:19;;;;;;;;;1.67;1.00;;;;;13.45;52.65;99824.53;6278135;22;45247;-71
2023/03/31 19:06:44;;;;;;;;;2.67;1.00;;;;;13.46;52.94;99822.75;6277978;22;45228;-71
2023/03/31 19:09:10;;;;;;;;;1.67;1.67;;;;;13.38;52.74;99818.34;6278208;22;45398;-73
2023/03/31 19:11:36;;;;;;;;;4.00;1.00;;;;;13.39;52.74;99825.44;6277448;22;45279;-71
2023/03/31 19:14:01;;;;;;;;;0.67;0.00;;;;;13.29;52.95;99809.53;6278409;22;45492;-71
2023/03/31 19:16:27;;;;;;;;;3.00;1.00;;;;;13.37;52.93;99832.50;6277046;22;45440;-71
2023/03/31 19:18:53;;;;;;;;;2.00;0.00;;;;;13.38;52.57;99841.34;6278021;22;45927;-72
2023/03/31 19:21:19;;;;;;;;;4.33;2.00;;;;;13.32;52.89;99833.41;6277994;22;45181;-71
2023/03/31 19:23:44;;;;;;;;;0.67;0.00;;;;;13.30;53.18;99829.88;6278078;22;45085;-71
2023/03/31 19:26:14;;;;;;;;;0.00;0.00;;;;;13.35;52.94;99842.25;6277809;22;50956;-73
2023/03/31 19:28:40;;;;;;;;;1.00;1.00;;;;;13.21;53.35;99815.69;6278196;22;45823;-73
2023/03/31 19:31:05;;;;;;;;;2.00;2.00;;;;;13.25;53.21;99828.94;6278099;22;45296;-70
2023/03/31 19:33:31;;;;;;;;;2.00;0.00;;;;;13.27;53.99;99828.09;6278776;22;45164;-71
2023/03/31 19:35:56;;;;;;;;;0.67;0.67;;;;;13.23;53.41;99826.31;6279069;22;45180;-72
2023/03/31 19:38:24;;;;;;;;;4.33;1.00;;;;;13.15;53.53;99813.06;6278700;22;45347;-71
2023/03/31 19:40:49;;;;;;;;;1.67;1.00;;;;;13.18;53.72;99820.13;6277784;22;45168;-72
2023/03/31 19:43:19;;;;;;;;;2.00;1.00;;;;;13.28;54.19;99837.84;6278016;22;45234;-73
2023/03/31 19:45:49;;;;;;;;;2.00;0.33;;;;;13.28;54.21;99829.00;6276950;22;45514;-73
2023/03/31 19:48:15;;;;;;;;;2.00;1.00;;;;;13.24;54.92;99829.84;6277204;22;46365;-70
2023/03/31 19:50:46;;;;;;;;;4.00;2.67;;;;;13.14;54.74;99811.31;6276781;22;45200;-71
2023/03/31 19:53:12;;;;;;;;;2.00;0.33;;;;;13.08;55.17;99823.69;6278231;22;45235;-71
2023/03/31 19:55:40;;;;;;;;;1.33;1.00;;;;;13.11;56.02;99834.31;6277559;22;45236;-71
2023/03/31 19:58:05;;;;;;;;;2.00;0.00;;;;;13.01;55.40;99820.16;6276364;22;46227;-71
2023/03/31 20:00:31;;;;;;;;;0.00;0.00;;;;;13.06;55.61;99836.09;6276586;22;45325;-71